Terminal Aerodrome Forecast
Issued by NWS

Home | Current Version | Previous Version | Text Only | Print | Product List | Glossary On
Versions: 1 2 3 4 5 6 7 8 9 10 11 12 13 14
000
FTUS45 KREV 010100 AAB
TAFMMH
TAF AMD
KMMH 010123Z 0101/0124 28010KT 1SM FU VCTS BKN025 BKN090CB
     FM010230 30009KT 5SM FU SCT025 BKN035
     FM011800 12009KT P6SM SCT080
     FM012200 VRB10KT P6SM VCTS SCT080CB BKN120
      AMD NOT SKED 0102/0114=

USA.gov is the U.S. government's official web portal to all federal, state and local government web resources and services.